createdAt,value
2019-03-29T00:01:53.564Z,64.60
2019-03-29T00:04:19.981Z,65.40
2019-03-29T00:06:46.315Z,64.60
2019-03-29T00:09:12.640Z,64.70
2019-03-29T00:11:39.159Z,64.70
2019-03-29T00:14:05.626Z,64.80
2019-03-29T00:16:31.950Z,64.80
2019-03-29T00:18:58.271Z,64.80
2019-03-29T00:21:24.531Z,65.00
2019-03-29T00:23:50.931Z,64.90
2019-03-29T00:26:17.262Z,64.90
2019-03-29T00:28:43.700Z,65.20
2019-03-29T00:31:10.360Z,65.20
2019-03-29T00:33:36.770Z,66.00
2019-03-29T00:36:03.096Z,65.30
2019-03-29T00:38:29.425Z,66.00
2019-03-29T00:40:55.865Z,65.20
2019-03-29T00:43:22.192Z,65.20
2019-03-29T00:45:48.623Z,65.10
2019-03-29T00:48:14.955Z,65.00
2019-03-29T00:50:41.213Z,65.30
2019-03-29T00:53:08.343Z,65.30
2019-03-29T00:55:35.516Z,65.30
2019-03-29T00:58:01.823Z,65.40
2019-03-29T01:00:31.238Z,65.60
2019-03-29T01:02:56.339Z,65.60
2019-03-29T01:05:22.718Z,65.60
2019-03-29T01:07:49.025Z,65.70
2019-03-29T01:10:15.409Z,65.70
2019-03-29T01:12:41.736Z,65.80
2019-03-29T01:15:09.084Z,65.80
2019-03-29T01:17:35.832Z,65.90
2019-03-29T01:20:05.032Z,66.00
2019-03-29T01:22:32.006Z,66.00
2019-03-29T01:24:58.271Z,65.90
2019-03-29T01:27:24.637Z,65.90
2019-03-29T01:29:50.964Z,65.80
2019-03-29T01:32:17.235Z,65.90
2019-03-29T01:34:43.627Z,65.90
2019-03-29T01:37:10.058Z,65.70
2019-03-29T01:39:36.388Z,65.80
2019-03-29T01:42:02.775Z,65.70
2019-03-29T01:44:29.254Z,65.60
2019-03-29T01:46:55.687Z,65.70
2019-03-29T01:49:21.941Z,65.90
2019-03-29T01:51:48.449Z,65.80
2019-03-29T01:54:14.882Z,66.50
2019-03-29T01:56:41.419Z,66.00
2019-03-29T01:59:07.748Z,66.30
2019-03-29T02:01:34.022Z,66.80
2019-03-29T02:04:00.410Z,66.80
2019-03-29T02:06:26.752Z,66.60
2019-03-29T02:08:53.171Z,66.60
2019-03-29T02:11:19.503Z,66.60
2019-03-29T02:13:45.800Z,66.50
2019-03-29T02:16:12.265Z,66.40
2019-03-29T02:18:39.853Z,66.30
2019-03-29T02:21:06.462Z,66.20
2019-03-29T02:23:32.791Z,66.10
2019-03-29T02:25:59.123Z,66.20
2019-03-29T02:28:25.453Z,66.10
2019-03-29T02:30:51.782Z,66.00
2019-03-29T02:33:18.114Z,66.20
2019-03-29T02:35:44.548Z,66.10
2019-03-29T02:38:10.803Z,66.00
2019-03-29T02:40:37.210Z,65.90
2019-03-29T02:43:03.642Z,65.90
2019-03-29T02:45:30.778Z,65.80
2019-03-29T02:47:57.531Z,65.90
2019-03-29T02:50:23.865Z,66.10
2019-03-29T02:52:50.195Z,66.10
2019-03-29T02:55:16.532Z,66.10
2019-03-29T02:57:43.116Z,66.00
2019-03-29T03:00:10.521Z,66.00
2019-03-29T03:02:36.844Z,66.00
2019-03-29T03:05:04.416Z,65.90
2019-03-29T03:07:30.692Z,65.90
2019-03-29T03:09:56.989Z,66.00
2019-03-29T03:12:43.140Z,66.00
2019-03-29T03:15:10.270Z,66.00
2019-03-29T03:17:37.196Z,65.80
2019-03-29T03:20:06.431Z,66.10
2019-03-29T03:22:32.743Z,66.10
2019-03-29T03:24:59.169Z,66.10
2019-03-29T03:27:25.499Z,65.90
2019-03-29T03:29:51.933Z,66.40
2019-03-29T03:32:18.261Z,66.50
2019-03-29T03:34:44.601Z,66.50
2019-03-29T03:37:10.812Z,66.50
2019-03-29T03:39:37.168Z,66.50
2019-03-29T03:42:03.587Z,66.70
2019-03-29T03:44:29.913Z,66.50
2019-03-29T03:46:56.241Z,66.40
2019-03-29T03:49:22.576Z,66.40
2019-03-29T03:51:49.209Z,66.50
2019-03-29T03:54:15.869Z,66.40
2019-03-29T03:56:42.522Z,66.40
2019-03-29T03:59:09.319Z,66.40
2019-03-29T04:01:35.987Z,66.30
2019-03-29T04:04:02.412Z,66.40
2019-03-29T04:06:28.833Z,66.30
2019-03-29T04:08:55.163Z,66.50
2019-03-29T04:11:21.493Z,66.40
2019-03-29T04:13:47.751Z,66.50
2019-03-29T04:16:14.153Z,66.60
2019-03-29T04:18:40.482Z,66.60
2019-03-29T04:21:06.742Z,66.50
2019-03-29T04:23:33.054Z,66.50
2019-03-29T04:25:59.331Z,66.40
2019-03-29T04:28:25.802Z,66.40
2019-03-29T04:30:52.142Z,66.40
2019-03-29T04:33:19.980Z,66.60
2019-03-29T04:35:46.322Z,67.20
2019-03-29T04:38:12.640Z,66.70
2019-03-29T04:40:38.993Z,66.80
2019-03-29T04:43:05.494Z,66.70
2019-03-29T04:45:31.810Z,66.90
2019-03-29T04:47:58.178Z,66.80
2019-03-29T04:50:24.519Z,66.70
2019-03-29T04:52:50.705Z,66.90
2019-03-29T04:55:17.196Z,66.80
2019-03-29T04:57:43.358Z,66.70
2019-03-29T05:00:09.842Z,66.70
2019-03-29T05:02:35.967Z,66.80
2019-03-29T05:05:03.214Z,66.70
2019-03-29T05:07:29.545Z,67.60
2019-03-29T05:09:55.815Z,67.60
2019-03-29T05:12:22.102Z,66.90
2019-03-29T05:14:48.331Z,66.90
2019-03-29T05:17:14.666Z,66.80
2019-03-29T05:19:41.128Z,67.10
2019-03-29T05:22:07.389Z,67.00
2019-03-29T05:24:33.755Z,67.10
2019-03-29T05:27:00.089Z,67.10
2019-03-29T05:29:26.415Z,67.00
2019-03-29T05:31:53.770Z,67.10
2019-03-29T05:34:20.409Z,67.20
2019-03-29T05:36:46.710Z,67.20
2019-03-29T05:39:13.071Z,67.30
2019-03-29T05:41:39.312Z,67.20
2019-03-29T05:44:05.609Z,67.20
2019-03-29T05:46:31.910Z,67.30
2019-03-29T05:48:58.385Z,67.40
2019-03-29T05:51:24.636Z,67.50
2019-03-29T05:53:51.051Z,67.70
2019-03-29T05:56:18.313Z,68.00
2019-03-29T05:58:44.551Z,68.30
2019-03-29T06:01:10.962Z,68.30
2019-03-29T06:03:37.316Z,68.90
2019-03-29T06:06:03.736Z,70.00
2019-03-29T06:08:30.056Z,71.00
2019-03-29T06:10:56.389Z,71.70
2019-03-29T06:13:23.636Z,72.40
2019-03-29T06:15:49.880Z,73.10
2019-03-29T06:18:16.299Z,73.40
2019-03-29T06:20:42.612Z,73.60
2019-03-29T06:23:08.915Z,73.90
2019-03-29T06:25:36.108Z,74.00
2019-03-29T06:28:02.544Z,73.80
2019-03-29T06:30:29.797Z,73.80
2019-03-29T06:32:57.967Z,73.80
2019-03-29T06:35:25.527Z,73.50
2019-03-29T06:37:51.923Z,74.00
2019-03-29T06:40:24.865Z,72.90
2019-03-29T06:42:51.275Z,72.50
2019-03-29T06:45:17.935Z,72.00
2019-03-29T06:47:44.229Z,71.30
2019-03-29T06:50:13.867Z,71.00
2019-03-29T06:52:38.857Z,70.80
2019-03-29T06:55:05.184Z,70.20
2019-03-29T06:57:31.477Z,70.10
2019-03-29T06:59:57.786Z,70.00
2019-03-29T07:02:24.174Z,69.90
2019-03-29T07:04:50.502Z,70.00
2019-03-29T07:07:16.789Z,70.30
2019-03-29T07:09:43.161Z,70.40
2019-03-29T07:12:09.493Z,70.70
2019-03-29T07:14:35.711Z,70.90
2019-03-29T07:17:02.104Z,71.10
2019-03-29T07:19:48.284Z,71.30
2019-03-29T07:22:14.583Z,70.40
2019-03-29T07:24:41.110Z,70.40
2019-03-29T07:27:07.384Z,70.70
2019-03-29T07:29:33.771Z,70.80
2019-03-29T07:31:59.971Z,70.80
2019-03-29T07:34:26.330Z,71.00
2019-03-29T07:36:52.570Z,71.10
2019-03-29T07:39:18.894Z,71.10
2019-03-29T07:41:45.221Z,71.30
2019-03-29T07:44:11.457Z,71.20
2019-03-29T07:46:37.882Z,71.30
2019-03-29T07:49:04.211Z,71.10
2019-03-29T07:51:30.460Z,71.40
2019-03-29T07:53:56.874Z,70.90
2019-03-29T07:56:23.160Z,71.00
2019-03-29T07:58:49.527Z,70.80
2019-03-29T08:01:17.711Z,70.70
2019-03-29T08:03:43.933Z,69.90
2019-03-29T08:06:10.265Z,70.50
2019-03-29T08:08:36.596Z,70.20
2019-03-29T08:11:03.028Z,70.20
2019-03-29T08:13:29.356Z,70.20
2019-03-29T08:18:22.324Z,69.40
2019-03-29T08:20:48.657Z,70.00
2019-03-29T08:23:14.990Z,69.80
2019-03-29T08:25:41.418Z,69.80
2019-03-29T08:28:08.077Z,69.70
2019-03-29T08:30:34.592Z,69.40
2019-03-29T08:33:00.898Z,69.40
2019-03-29T08:35:27.573Z,69.10
2019-03-29T08:37:53.791Z,68.50
2019-03-29T08:40:20.052Z,68.40
2019-03-29T08:42:46.447Z,67.80
2019-03-29T08:45:12.935Z,67.00
2019-03-29T08:47:39.315Z,66.60
2019-03-29T08:50:05.974Z,66.60
2019-03-29T08:52:32.296Z,65.90
2019-03-29T08:54:58.711Z,65.70
2019-03-29T08:57:25.097Z,65.30
2019-03-29T08:59:51.876Z,64.90
2019-03-29T09:02:18.933Z,65.00
2019-03-29T09:04:46.139Z,65.10
2019-03-29T09:07:12.587Z,65.20
2019-03-29T09:09:39.106Z,64.90
2019-03-29T09:12:14.192Z,64.40
2019-03-29T09:14:33.573Z,64.50
2019-03-29T09:17:00.051Z,64.50
2019-03-29T09:19:26.419Z,64.50
2019-03-29T09:21:52.653Z,63.80
2019-03-29T09:24:22.217Z,63.90
2019-03-29T09:26:47.150Z,64.10
2019-03-29T09:29:13.481Z,63.40
2019-03-29T09:31:39.815Z,62.80
2019-03-29T09:34:06.141Z,62.70
2019-03-29T09:36:32.712Z,62.50
2019-03-29T09:38:59.108Z,62.20
2019-03-29T09:41:25.439Z,61.60
2019-03-29T09:43:54.239Z,61.40
2019-03-29T09:46:19.830Z,62.00
2019-03-29T09:48:46.284Z,61.20
2019-03-29T09:51:12.606Z,61.90
2019-03-29T09:53:41.142Z,61.00
2019-03-29T09:56:07.113Z,60.20
2019-03-29T09:58:33.770Z,60.00
2019-03-29T10:01:00.182Z,59.80
2019-03-29T10:03:26.427Z,59.70
2019-03-29T10:05:52.726Z,59.20
2019-03-29T10:08:19.068Z,59.40
2019-03-29T10:10:45.399Z,59.20
2019-03-29T10:13:11.734Z,58.90
2019-03-29T10:15:38.059Z,59.30
2019-03-29T10:18:04.493Z,59.70
2019-03-29T10:20:30.828Z,60.00
2019-03-29T10:22:57.052Z,59.40
2019-03-29T10:25:23.381Z,59.40
2019-03-29T10:27:49.713Z,58.90
2019-03-29T10:30:23.111Z,58.80
2019-03-29T10:32:49.541Z,58.70
2019-03-29T10:35:15.869Z,59.20
2019-03-29T10:37:42.201Z,59.00
2019-03-29T10:40:08.735Z,58.60
2019-03-29T10:42:34.889Z,58.30
2019-03-29T10:45:01.175Z,58.50
2019-03-29T10:47:42.350Z,58.30
2019-03-29T10:49:55.491Z,57.70
2019-03-29T10:52:21.938Z,57.40
2019-03-29T10:54:49.877Z,57.70
2019-03-29T10:57:18.679Z,57.50
2019-03-29T10:59:45.009Z,57.50
2019-03-29T11:02:11.340Z,57.00
2019-03-29T11:04:37.666Z,56.90
2019-03-29T11:07:04.101Z,56.40
2019-03-29T11:09:30.512Z,57.20
2019-03-29T11:11:56.868Z,57.00
2019-03-29T11:14:23.095Z,56.00
2019-03-29T11:16:49.629Z,56.40
2019-03-29T11:19:15.959Z,56.20
2019-03-29T11:21:42.354Z,55.20
2019-03-29T11:24:09.333Z,53.40
2019-03-29T11:26:35.974Z,51.00
2019-03-29T11:29:02.306Z,50.90
2019-03-29T11:31:28.949Z,51.60
2019-03-29T11:33:55.273Z,50.70
2019-03-29T11:36:21.603Z,49.40
2019-03-29T11:38:47.843Z,50.70
2019-03-29T11:41:14.249Z,52.60
2019-03-29T11:43:40.594Z,53.50
2019-03-29T11:46:06.923Z,53.20
2019-03-29T11:48:33.218Z,53.50
2019-03-29T11:50:59.792Z,53.20
2019-03-29T11:53:26.021Z,53.30
2019-03-29T11:55:52.679Z,53.50
2019-03-29T11:58:18.991Z,53.50
2019-03-29T12:00:45.416Z,52.40
2019-03-29T12:03:12.640Z,53.00
2019-03-29T12:05:39.044Z,53.20
2019-03-29T12:08:05.774Z,52.50
2019-03-29T12:10:32.480Z,52.40
2019-03-29T12:12:58.914Z,52.70
2019-03-29T12:15:25.248Z,52.80
2019-03-29T12:17:51.573Z,52.50
2019-03-29T12:20:17.904Z,52.00
2019-03-29T12:22:46.725Z,52.80
2019-03-29T12:25:13.022Z,52.80
2019-03-29T12:27:39.288Z,52.90
2019-03-29T12:30:07.594Z,52.50
2019-03-29T12:32:34.063Z,51.70
2019-03-29T12:35:02.278Z,51.10
2019-03-29T12:37:28.555Z,52.00
2019-03-29T12:39:54.999Z,52.20
2019-03-29T12:42:21.326Z,52.00
2019-03-29T12:44:47.758Z,52.40
2019-03-29T12:47:14.021Z,51.90
2019-03-29T12:49:40.522Z,51.30
2019-03-29T12:52:06.888Z,50.40
2019-03-29T12:54:33.286Z,50.80
2019-03-29T12:56:59.617Z,51.20
2019-03-29T12:59:26.157Z,50.50
2019-03-29T13:01:52.587Z,50.40
2019-03-29T13:04:18.928Z,50.40
2019-03-29T13:06:46.658Z,50.30
2019-03-29T13:09:12.915Z,49.90
2019-03-29T13:11:39.351Z,49.50
2019-03-29T13:14:10.597Z,49.00
2019-03-29T13:16:33.845Z,49.10
2019-03-29T13:19:00.264Z,49.40
2019-03-29T13:21:26.709Z,50.00
2019-03-29T13:23:52.971Z,51.60
2019-03-29T13:26:19.274Z,51.10
2019-03-29T13:28:45.805Z,51.40
2019-03-29T13:31:12.954Z,51.40
2019-03-29T13:33:39.511Z,51.00
2019-03-29T13:36:06.532Z,51.00
2019-03-29T13:38:32.852Z,50.20
2019-03-29T13:40:59.328Z,49.30
2019-03-29T13:43:25.731Z,49.20
2019-03-29T13:45:51.958Z,49.40
2019-03-29T13:48:18.503Z,48.50
2019-03-29T13:50:44.825Z,47.90
2019-03-29T13:53:11.243Z,48.00
2019-03-29T13:55:37.686Z,47.90
2019-03-29T13:58:04.017Z,48.10
2019-03-29T14:00:30.345Z,48.90
2019-03-29T14:02:57.017Z,48.20
2019-03-29T14:05:23.417Z,48.30
2019-03-29T14:07:49.645Z,48.10
2019-03-29T14:10:15.965Z,48.60
2019-03-29T14:12:42.510Z,48.30
2019-03-29T14:15:10.584Z,48.40
2019-03-29T14:17:36.913Z,48.00
2019-03-29T14:20:04.352Z,48.20
2019-03-29T14:22:30.637Z,48.20
2019-03-29T14:24:56.927Z,47.40
2019-03-29T14:27:23.269Z,46.70
2019-03-29T14:30:03.229Z,46.00
2019-03-29T14:32:17.761Z,47.10
2019-03-29T14:34:43.988Z,47.30
2019-03-29T14:37:10.283Z,47.00
2019-03-29T14:39:36.650Z,47.00
2019-03-29T14:42:03.082Z,46.80
2019-03-29T14:44:29.412Z,47.00
2019-03-29T14:46:55.844Z,46.90
2019-03-29T14:49:22.326Z,46.30
2019-03-29T14:51:48.671Z,46.60
2019-03-29T14:54:15.042Z,46.90
2019-03-29T14:56:41.373Z,46.30
2019-03-29T14:59:07.702Z,46.50
2019-03-29T15:01:34.035Z,46.10
2019-03-29T15:04:00.359Z,46.00
2019-03-29T15:06:26.695Z,46.10
2019-03-29T15:08:53.132Z,46.30
2019-03-29T15:11:22.574Z,46.40
2019-03-29T15:13:47.631Z,47.00
2019-03-29T15:16:13.961Z,47.00
2019-03-29T15:18:43.282Z,47.00
2019-03-29T15:21:10.568Z,46.40
2019-03-29T15:23:37.048Z,45.50
2019-03-29T15:26:03.480Z,45.80
2019-03-29T15:28:29.810Z,45.90
2019-03-29T15:30:56.344Z,46.00
2019-03-29T15:33:22.675Z,46.10
2019-03-29T15:35:49.006Z,46.50
2019-03-29T15:38:15.290Z,46.40
2019-03-29T15:40:41.699Z,46.30
2019-03-29T15:43:07.997Z,46.20
2019-03-29T15:45:34.275Z,46.10
2019-03-29T15:48:00.658Z,46.00
2019-03-29T15:50:29.056Z,46.40
2019-03-29T15:52:55.472Z,45.10
2019-03-29T15:55:21.799Z,46.00
2019-03-29T15:57:48.129Z,46.80
2019-03-29T16:00:15.081Z,46.10
2019-03-29T16:02:41.417Z,46.00
2019-03-29T16:05:08.145Z,45.80
2019-03-29T16:07:35.090Z,46.10
2019-03-29T16:10:01.832Z,45.70
2019-03-29T16:12:28.159Z,45.40
2019-03-29T16:14:54.602Z,45.30
2019-03-29T16:17:21.253Z,45.00
2019-03-29T16:19:47.664Z,45.00
2019-03-29T16:22:14.110Z,45.30
2019-03-29T16:24:40.425Z,45.80
2019-03-29T16:27:07.119Z,45.40
2019-03-29T16:29:33.599Z,45.60
2019-03-29T16:32:00.647Z,45.80
2019-03-29T16:34:27.910Z,45.60
2019-03-29T16:36:54.228Z,45.80
2019-03-29T16:39:20.471Z,45.60
2019-03-29T16:41:46.796Z,45.50
2019-03-29T16:44:13.081Z,45.40
2019-03-29T16:46:39.449Z,45.20
2019-03-29T16:49:05.777Z,45.50
2019-03-29T16:51:32.631Z,45.50
2019-03-29T16:53:59.052Z,46.00
2019-03-29T16:56:25.381Z,46.10
2019-03-29T16:58:52.039Z,46.20
2019-03-29T17:01:18.374Z,46.00
2019-03-29T17:03:44.758Z,45.90
2019-03-29T17:06:11.215Z,45.90
2019-03-29T17:08:37.763Z,46.00
2019-03-29T17:11:06.022Z,46.10
2019-03-29T17:13:32.356Z,46.00
2019-03-29T17:16:02.165Z,46.30
2019-03-29T17:18:29.601Z,46.20
2019-03-29T17:20:55.238Z,46.10
2019-03-29T17:23:21.694Z,46.30
2019-03-29T17:25:47.995Z,46.40
2019-03-29T17:28:14.333Z,46.60
2019-03-29T17:30:42.712Z,46.70
2019-03-29T17:33:09.011Z,46.80
2019-03-29T17:35:35.793Z,46.70
2019-03-29T17:38:02.301Z,46.80
2019-03-29T17:40:28.646Z,46.90
2019-03-29T17:42:54.968Z,46.90
2019-03-29T17:45:21.251Z,47.00
2019-03-29T17:47:47.639Z,47.20
2019-03-29T17:50:14.120Z,47.10
2019-03-29T17:52:42.096Z,47.10
2019-03-29T17:55:08.575Z,47.30
2019-03-29T17:57:34.834Z,47.60
2019-03-29T18:00:03.494Z,47.60
2019-03-29T18:02:29.819Z,47.80
2019-03-29T18:04:56.250Z,48.00
2019-03-29T18:07:22.683Z,48.10
2019-03-29T18:09:49.118Z,48.30
2019-03-29T18:12:15.429Z,48.60
2019-03-29T18:14:41.778Z,48.50
2019-03-29T18:17:08.107Z,48.70
2019-03-29T18:19:35.919Z,48.80
2019-03-29T18:22:03.740Z,49.00
2019-03-29T18:24:30.076Z,49.40
2019-03-29T18:26:58.323Z,50.20
2019-03-29T18:29:24.576Z,50.30
2019-03-29T18:31:51.517Z,50.20
2019-03-29T18:34:17.927Z,51.30
2019-03-29T18:36:46.170Z,50.80
2019-03-29T18:39:12.563Z,51.20
2019-03-29T18:41:38.993Z,51.40
2019-03-29T18:44:05.320Z,51.50
2019-03-29T18:46:44.107Z,51.50
2019-03-29T18:49:01.450Z,51.70
2019-03-29T18:51:28.745Z,51.90
2019-03-29T18:53:55.147Z,52.30
2019-03-29T18:56:21.482Z,52.20
2019-03-29T18:58:47.807Z,52.50
2019-03-29T19:01:14.119Z,52.60
2019-03-29T19:03:40.573Z,51.80
2019-03-29T19:06:07.229Z,51.30
2019-03-29T19:08:33.769Z,51.30
2019-03-29T19:11:00.283Z,51.20
2019-03-29T19:13:26.613Z,51.60
2019-03-29T19:15:52.957Z,51.40
2019-03-29T19:18:19.374Z,51.40
2019-03-29T19:20:45.809Z,51.60
2019-03-29T19:23:12.485Z,51.70
2019-03-29T19:25:38.782Z,51.80
2019-03-29T19:28:05.229Z,51.80
2019-03-29T19:30:31.739Z,52.00
2019-03-29T19:32:58.316Z,52.20
2019-03-29T19:35:24.814Z,52.30
2019-03-29T19:37:51.346Z,52.40
2019-03-29T19:40:18.091Z,52.60
2019-03-29T19:42:44.415Z,52.90
2019-03-29T19:45:11.718Z,53.00
2019-03-29T19:47:38.099Z,53.30
2019-03-29T19:50:05.454Z,53.30
2019-03-29T19:52:31.785Z,53.60
2019-03-29T19:55:01.189Z,53.60
2019-03-29T19:57:26.127Z,53.60
2019-03-29T19:59:52.425Z,53.70
2019-03-29T20:02:18.760Z,53.80
2019-03-29T20:04:45.078Z,53.80
2019-03-29T20:07:11.406Z,53.80
2019-03-29T20:09:37.738Z,54.00
2019-03-29T20:12:04.171Z,54.00
2019-03-29T20:14:30.497Z,54.10
2019-03-29T20:16:56.873Z,54.20
2019-03-29T20:19:23.262Z,54.30
2019-03-29T20:21:49.695Z,54.40
2019-03-29T20:24:16.182Z,54.50
2019-03-29T20:26:42.559Z,54.60
2019-03-29T20:29:08.895Z,54.60
2019-03-29T20:31:35.323Z,54.60
2019-03-29T20:34:01.764Z,54.80
2019-03-29T20:36:28.118Z,55.00
2019-03-29T20:38:54.524Z,55.10
2019-03-29T20:41:20.937Z,55.40
2019-03-29T20:43:47.734Z,55.50
2019-03-29T20:46:14.233Z,55.60
2019-03-29T20:48:40.894Z,55.80
2019-03-29T20:51:07.200Z,55.80
2019-03-29T20:53:34.621Z,56.00
2019-03-29T20:56:00.990Z,57.20
2019-03-29T20:58:27.413Z,58.40
2019-03-29T21:00:53.859Z,59.00
2019-03-29T21:03:20.138Z,59.50
2019-03-29T21:05:46.622Z,59.40
2019-03-29T21:08:12.942Z,57.80
2019-03-29T21:10:39.279Z,56.50
2019-03-29T21:13:07.158Z,56.50
2019-03-29T21:15:33.804Z,56.60
2019-03-29T21:18:00.739Z,56.60
2019-03-29T21:20:27.154Z,56.70
2019-03-29T21:22:53.484Z,56.80
2019-03-29T21:25:19.739Z,57.00
2019-03-29T21:27:46.260Z,57.10
2019-03-29T21:30:16.571Z,57.10
2019-03-29T21:32:43.565Z,56.20
2019-03-29T21:35:10.182Z,57.10
2019-03-29T21:37:36.525Z,57.40
2019-03-29T21:40:06.879Z,62.90
2019-03-29T21:42:33.629Z,63.00
2019-03-29T21:45:00.308Z,62.90
2019-03-29T21:47:26.742Z,62.20
2019-03-29T21:49:53.100Z,62.30
2019-03-29T21:52:19.336Z,62.60
2019-03-29T21:54:45.833Z,62.40
2019-03-29T21:57:12.108Z,63.10
2019-03-29T21:59:38.418Z,63.50
2019-03-29T22:02:04.756Z,63.90
2019-03-29T22:04:31.043Z,64.60
2019-03-29T22:06:57.570Z,65.10
2019-03-29T22:09:36.463Z,65.60
2019-03-29T22:11:52.058Z,66.80
2019-03-29T22:14:18.526Z,68.50
2019-03-29T22:16:44.864Z,71.90
2019-03-29T22:19:11.324Z,74.70
2019-03-29T22:21:37.700Z,78.80
2019-03-29T22:24:04.204Z,77.80
2019-03-29T22:26:30.639Z,75.20
2019-03-29T22:28:57.107Z,73.60
2019-03-29T22:31:23.433Z,72.70
2019-03-29T22:33:49.767Z,72.20
2019-03-29T22:36:16.089Z,71.40
2019-03-29T22:38:42.327Z,70.80
2019-03-29T22:41:09.076Z,70.50
2019-03-29T22:43:35.495Z,70.50
2019-03-29T22:46:01.786Z,70.20
2019-03-29T22:48:28.048Z,70.00
2019-03-29T22:50:54.384Z,69.50
2019-03-29T22:53:20.826Z,69.40
2019-03-29T22:55:47.304Z,69.30
2019-03-29T22:58:13.537Z,69.40
2019-03-29T23:00:43.952Z,69.30
2019-03-29T23:03:10.444Z,69.60
2019-03-29T23:05:36.762Z,70.20
2019-03-29T23:08:03.607Z,70.60
2019-03-29T23:10:29.862Z,71.10
2019-03-29T23:12:56.286Z,71.70
2019-03-29T23:15:23.935Z,73.70
2019-03-29T23:17:50.577Z,76.30
2019-03-29T23:27:37.323Z,85.10
2019-03-29T23:30:05.716Z,84.10
2019-03-29T23:32:32.029Z,77.10
2019-03-29T23:34:58.364Z,79.90
2019-03-29T23:37:25.017Z,79.30
2019-03-29T23:39:51.737Z,78.50
2019-03-29T23:42:17.961Z,77.20
2019-03-29T23:44:44.297Z,76.50
2019-03-29T23:47:10.561Z,76.20
2019-03-29T23:49:36.959Z,76.50
2019-03-29T23:52:03.286Z,76.90
2019-03-29T23:54:29.605Z,76.50
2019-03-29T23:56:55.877Z,76.20
2019-03-29T23:59:22.289Z,76.40
